createdAt,value
2018-02-04T00:02:08.839Z,9.60
2018-02-04T00:04:36.925Z,10.43
2018-02-04T00:07:05.057Z,10.57
2018-02-04T00:09:33.209Z,9.67
2018-02-04T00:12:01.301Z,10.10
2018-02-04T00:14:29.522Z,10.80
2018-02-04T00:16:57.628Z,11.23
2018-02-04T00:19:25.723Z,10.67
2018-02-04T00:21:53.833Z,10.13
2018-02-04T00:24:22.691Z,12.47
2018-02-04T00:26:50.807Z,9.37
2018-02-04T00:29:18.901Z,9.57
2018-02-04T00:31:47.003Z,10.20
2018-02-04T00:34:15.125Z,10.90
2018-02-04T00:36:43.245Z,10.70
2018-02-04T00:39:11.331Z,11.37
2018-02-04T00:41:40.039Z,10.90
2018-02-04T00:44:08.900Z,11.33
2018-02-04T00:46:37.028Z,10.13
2018-02-04T00:49:05.124Z,10.53
2018-02-04T00:51:33.228Z,9.43
2018-02-04T00:54:02.090Z,10.57
2018-02-04T00:56:30.170Z,10.67
2018-02-04T00:58:58.280Z,10.63
2018-02-04T01:01:26.360Z,8.63
2018-02-04T01:03:54.462Z,10.40
2018-02-04T01:06:22.552Z,10.53
2018-02-04T01:08:51.424Z,10.03
2018-02-04T01:11:19.578Z,11.50
2018-02-04T01:13:47.684Z,10.80
2018-02-04T01:16:15.820Z,9.80
2018-02-04T01:18:43.900Z,10.23
2018-02-04T01:21:11.996Z,9.83
2018-02-04T01:23:40.086Z,9.60
2018-02-04T01:26:08.226Z,9.03
2018-02-04T01:28:36.310Z,9.50
2018-02-04T01:31:04.408Z,9.50
2018-02-04T01:33:32.492Z,10.27
2018-02-04T01:36:00.679Z,10.07
2018-02-04T01:38:29.536Z,9.43
2018-02-04T01:40:57.648Z,9.53
2018-02-04T01:43:25.756Z,9.97
2018-02-04T01:45:53.875Z,9.40
2018-02-04T01:48:21.981Z,9.63
2018-02-04T01:50:50.063Z,8.83
2018-02-04T01:53:18.167Z,9.67
2018-02-04T01:55:46.269Z,9.27
2018-02-04T01:58:15.127Z,8.80
2018-02-04T02:00:43.219Z,10.33
2018-02-04T02:03:11.319Z,8.77
2018-02-04T02:05:39.509Z,9.80
2018-02-04T02:08:07.952Z,9.60
2018-02-04T02:10:36.984Z,8.23
2018-02-04T02:13:05.089Z,7.73
2018-02-04T02:15:33.202Z,8.23
2018-02-04T02:18:01.424Z,9.13
2018-02-04T02:20:29.593Z,8.30
2018-02-04T02:22:57.706Z,8.47
2018-02-04T02:25:25.830Z,7.97
2018-02-04T02:27:53.994Z,7.20
2018-02-04T02:30:22.080Z,8.33
2018-02-04T02:32:50.171Z,7.30
2018-02-04T02:35:18.288Z,8.50
2018-02-04T02:37:47.130Z,9.30
2018-02-04T02:40:15.216Z,8.63
2018-02-04T02:42:43.320Z,8.23
2018-02-04T02:45:11.423Z,8.23
2018-02-04T02:47:39.532Z,8.80
2018-02-04T02:50:07.638Z,10.20
2018-02-04T02:52:35.729Z,9.10
2018-02-04T02:55:03.880Z,9.33
2018-02-04T02:57:31.958Z,7.97
2018-02-04T03:00:00.116Z,8.73
2018-02-04T03:02:28.210Z,8.77
2018-02-04T03:04:56.646Z,9.20
2018-02-04T03:07:24.765Z,7.90
2018-02-04T03:09:52.870Z,8.90
2018-02-04T03:12:20.985Z,8.80
2018-02-04T03:14:49.090Z,8.47
2018-02-04T03:17:17.895Z,7.77
2018-02-04T03:19:45.993Z,7.47
2018-02-04T03:22:14.067Z,9.20
2018-02-04T03:24:42.153Z,9.83
2018-02-04T03:27:10.307Z,9.03
2018-02-04T03:29:38.412Z,9.43
2018-02-04T03:32:07.019Z,8.30
2018-02-04T03:34:35.413Z,8.33
2018-02-04T03:37:03.831Z,8.13
2018-02-04T03:39:31.962Z,8.17
2018-02-04T03:42:00.046Z,7.57
2018-02-04T03:44:28.182Z,7.37
2018-02-04T03:46:56.283Z,7.50
2018-02-04T03:49:24.392Z,7.77
2018-02-04T03:51:52.504Z,8.17
2018-02-04T03:54:20.690Z,7.70
2018-02-04T03:56:48.786Z,7.33
2018-02-04T03:59:16.896Z,7.47
2018-02-04T04:01:44.978Z,8.03
2018-02-04T04:04:13.108Z,8.80
2018-02-04T04:06:41.837Z,8.27
2018-02-04T04:09:10.036Z,8.73
2018-02-04T04:11:39.087Z,8.73
2018-02-04T04:14:07.210Z,9.13
2018-02-04T04:16:35.342Z,8.30
2018-02-04T04:19:03.438Z,8.63
2018-02-04T04:21:32.296Z,9.03
2018-02-04T04:24:00.374Z,8.47
2018-02-04T04:26:28.475Z,9.47
2018-02-04T04:28:56.653Z,8.60
2018-02-04T04:31:24.829Z,9.83
2018-02-04T04:33:52.916Z,10.80
2018-02-04T04:36:21.032Z,9.80
2018-02-04T04:38:49.117Z,8.70
2018-02-04T04:41:17.241Z,9.30
2018-02-04T04:43:45.329Z,9.00
2018-02-04T04:46:13.483Z,9.40
2018-02-04T04:48:41.679Z,11.03
2018-02-04T04:51:09.971Z,10.50
2018-02-04T04:53:38.139Z,9.70
2018-02-04T04:56:06.349Z,10.17
2018-02-04T04:58:35.211Z,8.70
2018-02-04T05:01:03.295Z,8.83
2018-02-04T05:03:32.240Z,9.20
2018-02-04T05:06:00.320Z,9.70
2018-02-04T05:08:28.588Z,8.60
2018-02-04T05:10:56.668Z,8.13
2018-02-04T05:13:24.762Z,8.70
2018-02-04T05:15:52.845Z,8.37
2018-02-04T05:18:20.990Z,9.43
2018-02-04T05:20:49.116Z,9.03
2018-02-04T05:23:17.972Z,8.37
2018-02-04T05:25:46.060Z,8.77
2018-02-04T05:28:14.938Z,8.30
2018-02-04T05:30:43.035Z,9.73
2018-02-04T05:33:11.173Z,9.70
2018-02-04T05:35:39.376Z,8.80
2018-02-04T05:38:08.232Z,9.47
2018-02-04T05:40:36.321Z,9.07
2018-02-04T05:43:04.411Z,10.77
2018-02-04T05:45:33.263Z,9.67
2018-02-04T05:48:01.359Z,9.83
2018-02-04T05:50:29.457Z,10.13
2018-02-04T05:52:57.549Z,10.87
2018-02-04T05:55:25.645Z,10.67
2018-02-04T05:57:53.743Z,11.53
2018-02-04T06:00:22.604Z,11.47
2018-02-04T06:02:50.704Z,11.97
2018-02-04T06:05:18.796Z,12.70
2018-02-04T06:07:46.887Z,13.03
2018-02-04T06:10:14.979Z,11.30
2018-02-04T06:12:43.073Z,12.20
2018-02-04T06:15:11.224Z,12.83
2018-02-04T06:17:39.309Z,11.33
2018-02-04T06:20:07.408Z,12.07
2018-02-04T06:22:35.500Z,12.93
2018-02-04T06:25:03.616Z,12.50
2018-02-04T06:27:31.737Z,10.73
2018-02-04T06:30:00.660Z,12.10
2018-02-04T06:32:28.759Z,11.27
2018-02-04T06:34:56.846Z,11.43
2018-02-04T06:37:24.950Z,13.03
2018-02-04T06:39:53.022Z,12.77
2018-02-04T06:42:21.135Z,12.83
2018-02-04T06:44:49.337Z,12.23
2018-02-04T06:47:17.514Z,12.47
2018-02-04T06:49:45.614Z,13.57
2018-02-04T06:52:14.100Z,13.47
2018-02-04T06:54:42.231Z,14.40
2018-02-04T06:57:10.422Z,13.90
2018-02-04T06:59:38.521Z,14.10
2018-02-04T07:02:06.615Z,13.20
2018-02-04T07:04:34.723Z,14.53
2018-02-04T07:07:02.813Z,14.87
2018-02-04T07:09:30.913Z,14.07
2018-02-04T07:11:59.057Z,14.67
2018-02-04T07:14:27.257Z,13.83
2018-02-04T07:16:55.403Z,15.83
2018-02-04T07:19:23.521Z,15.23
2018-02-04T07:21:51.659Z,14.00
2018-02-04T07:24:20.365Z,14.03
2018-02-04T07:26:48.511Z,13.00
2018-02-04T07:29:16.732Z,11.80
2018-02-04T07:31:44.989Z,12.03
2018-02-04T07:34:13.207Z,12.80
2018-02-04T07:36:41.506Z,12.70
2018-02-04T07:39:09.691Z,12.70
2018-02-04T07:41:38.592Z,11.80
2018-02-04T07:44:06.692Z,12.07
2018-02-04T07:46:34.794Z,15.50
2018-02-04T07:49:02.908Z,12.83
2018-02-04T07:51:31.032Z,13.57
2018-02-04T07:53:59.210Z,12.33
2018-02-04T07:56:27.405Z,14.33
2018-02-04T07:58:55.498Z,12.83
2018-02-04T08:01:24.382Z,14.30
2018-02-04T08:03:52.480Z,13.20
2018-02-04T08:06:21.451Z,13.27
2018-02-04T08:08:49.649Z,11.87
2018-02-04T08:11:17.865Z,12.23
2018-02-04T08:13:45.941Z,12.33
2018-02-04T08:16:14.060Z,13.93
2018-02-04T08:18:42.177Z,12.07
2018-02-04T08:21:10.386Z,13.00
2018-02-04T08:23:38.499Z,13.77
2018-02-04T08:26:06.595Z,12.67
2018-02-04T08:28:34.715Z,13.20
2018-02-04T08:31:02.821Z,13.57
2018-02-04T08:33:31.102Z,13.70
2018-02-04T08:35:59.233Z,12.23
2018-02-04T08:38:27.669Z,13.07
2018-02-04T08:40:55.961Z,12.97
2018-02-04T08:43:24.159Z,14.23
2018-02-04T08:45:52.267Z,14.70
2018-02-04T08:48:20.428Z,15.90
2018-02-04T08:50:49.125Z,13.97
2018-02-04T08:53:17.239Z,14.80
2018-02-04T08:55:45.346Z,15.03
2018-02-04T08:58:13.495Z,13.40
2018-02-04T09:00:41.595Z,14.23
2018-02-04T09:03:10.502Z,11.83
2018-02-04T09:05:38.602Z,13.07
2018-02-04T09:08:06.708Z,13.20
2018-02-04T09:10:34.880Z,13.03
2018-02-04T09:13:03.388Z,12.13
2018-02-04T09:15:31.508Z,12.73
2018-02-04T09:17:59.654Z,13.87
2018-02-04T09:20:27.854Z,12.00
2018-02-04T09:22:56.088Z,12.87
2018-02-04T09:25:24.192Z,14.57
2018-02-04T09:27:53.044Z,13.80
2018-02-04T09:30:21.152Z,13.07
2018-02-04T09:32:49.247Z,11.97
2018-02-04T09:35:17.450Z,14.10
2018-02-04T09:37:46.304Z,11.80
2018-02-04T09:40:15.188Z,12.33
2018-02-04T09:42:43.285Z,11.93
2018-02-04T09:45:11.390Z,12.47
2018-02-04T09:47:39.587Z,12.87
2018-02-04T09:50:08.536Z,12.10
2018-02-04T09:52:36.649Z,12.77
2018-02-04T09:55:04.769Z,12.20
2018-02-04T09:57:32.847Z,12.13
2018-02-04T10:00:00.960Z,11.97
2018-02-04T10:02:29.075Z,12.77
2018-02-04T10:04:57.256Z,11.47
2018-02-04T10:07:25.845Z,11.40
2018-02-04T10:09:53.943Z,12.93
2018-02-04T10:12:22.108Z,9.73
2018-02-04T10:14:50.290Z,10.27
2018-02-04T10:17:18.523Z,9.50
2018-02-04T10:19:46.703Z,10.50
2018-02-04T10:22:14.832Z,10.77
2018-02-04T10:24:42.934Z,10.20
2018-02-04T10:27:11.080Z,11.17
2018-02-04T10:29:40.427Z,12.50
2018-02-04T10:32:09.047Z,11.13
2018-02-04T10:34:37.168Z,10.13
2018-02-04T10:37:05.288Z,11.43
2018-02-04T10:39:33.424Z,12.03
2018-02-04T10:42:02.158Z,11.47
2018-02-04T10:44:30.428Z,12.00
2018-02-04T10:46:59.014Z,13.17
2018-02-04T10:49:27.112Z,13.33
2018-02-04T10:52:01.681Z,13.03
2018-02-04T10:54:30.677Z,15.13
2018-02-04T10:56:59.629Z,12.83
2018-02-04T10:59:27.746Z,13.90
2018-02-04T11:01:55.867Z,13.80
2018-02-04T11:04:23.957Z,14.27
2018-02-04T11:06:56.244Z,15.03
2018-02-04T11:09:24.405Z,10.90
2018-02-04T11:11:52.507Z,9.03
2018-02-04T11:14:21.357Z,6.60
2018-02-04T11:16:49.524Z,7.57
2018-02-04T11:32:23.770Z,8.30
2018-02-04T11:34:52.676Z,10.20
2018-02-04T11:37:20.873Z,9.47
2018-02-04T11:39:48.961Z,8.60
2018-02-04T11:42:17.111Z,8.73
2018-02-04T11:44:45.804Z,8.73
2018-02-04T11:47:13.953Z,8.67
2018-02-04T11:49:42.216Z,8.80
2018-02-04T11:52:10.411Z,10.23
2018-02-04T11:54:39.009Z,9.50
2018-02-04T11:57:07.101Z,9.20
2018-02-04T11:59:35.210Z,9.77
2018-02-04T12:02:03.425Z,9.80
2018-02-04T12:04:31.641Z,7.67
2018-02-04T12:06:59.734Z,7.00
2018-02-04T12:09:27.860Z,5.70
2018-02-04T12:11:56.584Z,5.80
2018-02-04T12:14:24.733Z,8.30
2018-02-04T12:16:52.892Z,10.30
2018-02-04T12:19:21.147Z,9.70
2018-02-04T12:21:49.309Z,9.30
2018-02-04T12:24:17.418Z,7.57
2018-02-04T12:26:45.531Z,8.60
2018-02-04T12:29:13.609Z,9.63
2018-02-04T12:31:41.733Z,9.20
2018-02-04T12:34:09.838Z,9.07
2018-02-04T12:36:38.010Z,9.77
2018-02-04T12:39:07.023Z,8.13
2018-02-04T12:41:35.154Z,8.60
2018-02-04T12:44:03.237Z,5.03
2018-02-04T12:46:31.340Z,4.20
2018-02-04T12:48:59.524Z,4.03
2018-02-04T12:51:28.371Z,4.37
2018-02-04T12:53:56.488Z,3.80
2018-02-04T12:56:25.389Z,3.47
2018-02-04T12:58:53.470Z,3.50
2018-02-04T13:01:21.575Z,3.30
2018-02-04T13:03:49.713Z,3.57
2018-02-04T13:06:17.806Z,4.30
2018-02-04T13:08:45.917Z,3.93
2018-02-04T13:11:14.014Z,4.17
2018-02-04T13:13:42.860Z,3.80
2018-02-04T13:16:10.945Z,3.77
2018-02-04T13:18:39.057Z,3.47
2018-02-04T13:21:07.183Z,3.23
2018-02-04T13:23:35.276Z,3.40
2018-02-04T13:26:03.361Z,3.93
2018-02-04T13:28:31.455Z,4.77
2018-02-04T13:30:59.568Z,4.47
2018-02-04T13:33:27.654Z,4.93
2018-02-04T13:35:55.781Z,5.10
2018-02-04T13:38:23.916Z,4.73
2018-02-04T13:40:51.992Z,3.70
2018-02-04T13:43:20.101Z,3.90
2018-02-04T13:45:48.186Z,3.80
2018-02-04T13:48:16.285Z,4.30
2018-02-04T13:50:44.369Z,3.90
2018-02-04T13:53:13.222Z,4.07
2018-02-04T13:55:41.313Z,4.07
2018-02-04T13:58:09.404Z,3.43
2018-02-04T14:00:37.503Z,3.10
2018-02-04T14:03:05.624Z,3.00
2018-02-04T14:05:33.793Z,3.90
2018-02-04T14:08:01.938Z,3.77
2018-02-04T14:10:30.035Z,3.80
2018-02-04T14:12:58.117Z,3.90
2018-02-04T14:15:26.206Z,3.43
2018-02-04T14:17:54.283Z,4.10
2018-02-04T14:20:22.428Z,3.50
2018-02-04T14:22:51.353Z,3.23
2018-02-04T14:25:19.489Z,3.10
2018-02-04T14:27:47.595Z,2.87
2018-02-04T14:30:15.677Z,2.83
2018-02-04T14:32:43.791Z,1.97
2018-02-04T14:35:11.870Z,2.47
2018-02-04T14:37:40.019Z,2.80
2018-02-04T14:40:08.102Z,3.30
2018-02-04T14:42:36.244Z,3.00
2018-02-04T14:45:04.349Z,3.57
2018-02-04T14:47:32.457Z,4.00
2018-02-04T14:50:00.639Z,4.40
2018-02-04T14:52:29.601Z,5.30
2018-02-04T14:54:57.709Z,5.27
2018-02-04T14:57:25.794Z,5.30
2018-02-04T14:59:53.896Z,5.50
2018-02-04T15:02:22.027Z,4.87
2018-02-04T15:04:50.128Z,5.40
2018-02-04T15:07:18.215Z,5.90
2018-02-04T15:09:46.316Z,6.10
2018-02-04T15:12:14.609Z,5.97
2018-02-04T15:14:43.469Z,7.07
2018-02-04T15:17:11.611Z,6.10
2018-02-04T15:19:39.709Z,6.90
2018-02-04T15:22:07.795Z,7.13
2018-02-04T15:24:35.940Z,8.00
2018-02-04T15:27:04.027Z,7.97
2018-02-04T15:29:32.193Z,7.00
2018-02-04T15:32:00.302Z,7.83
2018-02-04T15:34:29.111Z,8.23
2018-02-04T15:36:57.968Z,7.10
2018-02-04T15:39:26.068Z,6.90
2018-02-04T15:41:54.961Z,5.70
2018-02-04T15:44:23.035Z,6.40
2018-02-04T15:46:51.120Z,6.90
2018-02-04T15:49:19.236Z,6.80
2018-02-04T15:51:48.319Z,7.20
2018-02-04T15:54:16.456Z,7.83
2018-02-04T15:56:44.558Z,7.40
2018-02-04T15:59:12.633Z,7.40
2018-02-04T16:01:40.735Z,7.60
2018-02-04T16:04:08.822Z,8.47
2018-02-04T16:06:37.737Z,8.90
2018-02-04T16:09:05.835Z,9.77
2018-02-04T16:11:33.937Z,8.57
2018-02-04T16:14:02.028Z,9.13
2018-02-04T16:16:30.125Z,9.93
2018-02-04T16:18:58.251Z,9.43
2018-02-04T16:21:26.398Z,9.27
2018-02-04T16:23:54.592Z,11.27
2018-02-04T16:26:22.708Z,10.10
2018-02-04T16:28:50.878Z,10.57
2018-02-04T16:31:18.971Z,12.23
2018-02-04T16:33:47.077Z,11.33
2018-02-04T16:36:15.165Z,9.90
2018-02-04T16:38:43.260Z,10.30
2018-02-04T16:41:11.350Z,9.93
2018-02-04T16:43:39.455Z,11.30
2018-02-04T16:46:07.569Z,11.97
2018-02-04T16:48:35.695Z,12.30
2018-02-04T16:51:03.812Z,10.53
2018-02-04T16:53:31.903Z,10.87
2018-02-04T16:56:00.055Z,10.40
2018-02-04T16:58:28.145Z,10.73
2018-02-04T17:00:56.254Z,12.20
2018-02-04T17:03:24.359Z,12.63
2018-02-04T17:05:52.467Z,13.93
2018-02-04T17:08:20.566Z,13.57
2018-02-04T17:10:48.671Z,14.60
2018-02-04T17:13:16.768Z,13.13
2018-02-04T17:15:44.904Z,15.33
2018-02-04T17:18:13.017Z,15.73
2018-02-04T17:20:41.884Z,17.23
2018-02-04T17:23:09.978Z,16.30
2018-02-04T17:25:38.851Z,17.27
2018-02-04T17:28:06.937Z,18.50
2018-02-04T17:30:35.853Z,19.17
2018-02-04T17:33:03.939Z,21.53
2018-02-04T17:35:32.030Z,21.70
2018-02-04T17:38:00.200Z,20.93
2018-02-04T17:40:28.392Z,21.60
2018-02-04T17:42:56.636Z,20.97
2018-02-04T17:45:24.780Z,19.20
2018-02-04T17:47:52.890Z,19.77
2018-02-04T17:50:21.012Z,17.17
2018-02-04T17:52:49.903Z,19.00
2018-02-04T17:55:18.003Z,20.57
2018-02-04T17:57:46.136Z,23.57
2018-02-04T18:00:14.244Z,25.33
2018-02-04T18:02:42.348Z,24.07
2018-02-04T18:05:11.086Z,25.07
2018-02-04T18:07:39.964Z,22.17
2018-02-04T18:10:08.065Z,25.10
2018-02-04T18:12:36.182Z,25.77
2018-02-04T18:15:04.304Z,27.60
2018-02-04T18:17:32.427Z,30.27
2018-02-04T18:20:00.536Z,28.77
2018-02-04T18:22:28.651Z,28.60
2018-02-04T18:24:56.812Z,27.33
2018-02-04T18:27:24.873Z,26.20
2018-02-04T18:29:52.999Z,25.87
2018-02-04T18:32:21.116Z,22.23
2018-02-04T18:34:49.228Z,21.53
2018-02-04T18:37:17.327Z,19.97
2018-02-04T18:39:45.447Z,21.40
2018-02-04T18:42:13.613Z,20.63
2018-02-04T18:44:42.585Z,21.20
2018-02-04T18:47:10.703Z,20.07
2018-02-04T18:49:38.811Z,21.33
2018-02-04T18:52:07.707Z,20.83
2018-02-04T18:54:35.853Z,22.67
2018-02-04T18:57:04.030Z,22.97
2018-02-04T18:59:32.148Z,22.83
2018-02-04T19:02:00.259Z,24.17
2018-02-04T19:04:28.359Z,21.93
2018-02-04T19:06:56.478Z,22.03
2018-02-04T19:09:24.579Z,20.77
2018-02-04T19:11:53.802Z,20.10
2018-02-04T19:14:21.912Z,19.67
2018-02-04T19:16:50.086Z,20.07
2018-02-04T19:19:18.280Z,18.97
2018-02-04T19:21:46.420Z,19.30
2018-02-04T19:24:15.283Z,18.33
2018-02-04T19:26:43.408Z,19.57
2018-02-04T19:29:11.553Z,19.97
2018-02-04T19:31:39.680Z,20.10
2018-02-04T19:34:07.871Z,18.87
2018-02-04T19:36:36.346Z,18.40
2018-02-04T19:39:04.502Z,18.80
2018-02-04T19:41:32.606Z,18.57
2018-02-04T19:44:00.739Z,19.60
2018-02-04T19:46:29.168Z,19.17
2018-02-04T19:48:58.047Z,20.47
2018-02-04T19:51:26.241Z,19.20
2018-02-04T19:53:54.369Z,18.60
2018-02-04T19:56:22.477Z,18.53
2018-02-04T19:58:50.615Z,18.33
2018-02-04T20:01:18.746Z,19.13
2018-02-04T20:03:46.861Z,19.20
2018-02-04T20:06:14.984Z,18.77
2018-02-04T20:08:43.879Z,18.67
2018-02-04T20:11:11.983Z,21.03
2018-02-04T20:13:40.125Z,22.07
2018-02-04T20:16:08.253Z,20.80
2018-02-04T20:18:36.437Z,19.20
2018-02-04T20:21:04.615Z,18.87
2018-02-04T20:23:32.744Z,20.27
2018-02-04T20:26:00.889Z,19.30
2018-02-04T20:28:29.034Z,21.17
2018-02-04T20:30:57.238Z,19.77
2018-02-04T20:33:26.712Z,21.50
2018-02-04T20:35:54.850Z,20.40
2018-02-04T20:38:22.972Z,19.87
2018-02-04T20:40:51.852Z,19.53
2018-02-04T20:43:19.965Z,19.40
2018-02-04T20:45:52.192Z,21.33
2018-02-04T20:48:20.320Z,23.70
2018-02-04T20:50:48.446Z,23.53
2018-02-04T20:53:17.436Z,21.83
2018-02-04T21:08:40.594Z,20.30
2018-02-04T21:11:08.724Z,25.47
2018-02-04T21:13:36.874Z,28.13
2018-02-04T21:16:05.009Z,26.87
2018-02-04T21:18:33.881Z,28.07
2018-02-04T21:21:02.023Z,27.63
2018-02-04T21:23:30.855Z,26.57
2018-02-04T21:26:01.261Z,26.60
2018-02-04T21:28:29.429Z,26.20
2018-02-04T21:30:57.549Z,28.00
2018-02-04T21:33:25.693Z,27.17
2018-02-04T21:35:53.868Z,27.20
2018-02-04T21:38:21.957Z,25.10
2018-02-04T21:40:50.599Z,24.90
2018-02-04T21:56:14.649Z,21.97
2018-02-04T21:58:43.038Z,27.17
2018-02-04T22:01:11.242Z,26.57
2018-02-04T22:03:39.418Z,32.87
2018-02-04T22:06:07.560Z,33.33
2018-02-04T22:08:35.668Z,34.20
2018-02-04T22:11:03.810Z,34.30
2018-02-04T22:13:32.180Z,34.73
2018-02-04T22:16:00.316Z,35.27
2018-02-04T22:18:28.498Z,35.50
2018-02-04T22:20:57.727Z,29.70
2018-02-04T22:23:25.875Z,27.23
2018-02-04T22:25:54.495Z,25.80
2018-02-04T22:28:22.658Z,24.10
2018-02-04T22:30:51.322Z,22.77
2018-02-04T22:33:20.263Z,25.73
2018-02-04T22:35:48.371Z,25.53
2018-02-04T22:38:16.500Z,26.47
2018-02-04T22:40:44.621Z,26.97
2018-02-04T22:43:13.561Z,28.23
2018-02-04T22:45:41.915Z,29.33
2018-02-04T22:48:10.043Z,27.40
2018-02-04T22:50:39.803Z,29.43
2018-02-04T22:53:07.937Z,28.20
2018-02-04T22:55:36.126Z,28.50
2018-02-04T22:58:04.235Z,26.93
2018-02-04T23:00:32.703Z,30.47
2018-02-04T23:03:01.742Z,28.33
2018-02-04T23:05:30.655Z,26.37
2018-02-04T23:07:58.823Z,24.87
2018-02-04T23:10:27.040Z,25.47
2018-02-04T23:12:55.154Z,24.63
2018-02-04T23:15:23.944Z,23.23
2018-02-04T23:17:52.056Z,21.80
2018-02-04T23:20:20.192Z,24.47
2018-02-04T23:22:53.376Z,24.63
2018-02-04T23:25:21.656Z,22.40
2018-02-04T23:27:49.860Z,22.00
2018-02-04T23:30:18.860Z,21.70
2018-02-04T23:32:47.332Z,24.20
2018-02-04T23:48:10.511Z,17.70
2018-02-04T23:50:39.284Z,21.30
2018-02-04T23:53:07.407Z,21.07
2018-02-04T23:55:37.140Z,26.97
2018-02-04T23:58:05.261Z,39.67
